KCOT/COT METAR and TAF weather

Enter ICAO airport designator
Station Type Date Time Source
KCOT METAR 2022/05/26 05:53 UTC NOAA

KCOT 260553Z AUTO 14003KT 10SM CLR 21/17 A2995 RMK AO2 SLP136 T02110167 10311 20206 403170183 51017


Station Type Date Time Source
KCOT Decoded METAR 2022/05/26 05:53 UTC NOAA

COTULLA-LASALLE COUNTY AIRPORT , TX, United States (KCOT) 28-27N 099-13W 140M
May 26, 2022 - 01:53 AM EDT / 2022.05.26 0553 UTC
Wind: from the SE (140 degrees) at 3 MPH (3 KT):0
Visibility: 10 mile(s):0
Sky conditions: clear
Temperature: 70.0 F (21.1 C)
Dew Point: 62.1 F (16.7 C)
Relative Humidity: 75%
Pressure (altimeter): 29.95 in. Hg (1014 hPa)
Pressure tendency: 0.05 inches (1.7 hPa) higher than three hours ago
ob: KCOT 260553Z AUTO 14003KT 10SM CLR 21/17 A2995 RMK AO2 SLP136 T02110167 10311 20206 403170183 51017
cycle: 6

Station Type Date Time Source
KCOT TAF 2022/05/26 06:21 UTC NOAA

TAF KCOT 260520Z 2606/2706 14006KT P6SM FEW250

Example: see airport list